Time;durP1;ratioP1;P1;durP2;ratioP2;P2;SDS_P1;SDS_P2;PMS_P1;PMS_P2;Temp;Humidity;BMP_temperature;BMP_pressure;BME280_temperature;BME280_humidity;BME280_pressure;Samples;Min_cycle;Max_cycle;Signal;HPM_P1;HPM_P2
2023/09/05 00:01:32;;;;;;;45.33;18.17;;;16.60;99.90;;;;;;5097842;28;20068;-77
2023/09/05 00:03:58;;;;;;;50.35;18.70;;;16.50;99.90;;;;;;5098161;28;20044;-77
2023/09/05 00:06:25;;;;;;;43.95;16.92;;;16.50;99.90;;;;;;5098010;28;20044;-78
2023/09/05 00:08:53;;;;;;;46.42;17.50;;;16.40;99.90;;;;;;5095266;28;20163;-78
2023/09/05 00:11:19;;;;;;;52.75;16.50;;;16.40;99.90;;;;;;5079434;28;20072;-78
2023/09/05 00:13:46;;;;;;;43.85;16.40;;;16.30;99.90;;;;;;5085288;28;20123;-79
2023/09/05 00:16:13;;;;;;;38.15;15.48;;;16.30;99.90;;;;;;5098358;28;20044;-79
2023/09/05 00:18:41;;;;;;;38.83;15.07;;;16.20;99.90;;;;;;5098305;28;20091;-78
2023/09/05 00:21:07;;;;;;;41.65;16.15;;;16.20;99.90;;;;;;5097137;28;20044;-79
2023/09/05 00:23:34;;;;;;;40.25;16.92;;;16.20;99.90;;;;;;5080021;28;20068;-78
2023/09/05 00:26:01;;;;;;;44.80;15.88;;;16.10;99.90;;;;;;5086089;28;20474;-78
2023/09/05 00:28:28;;;;;;;52.67;20.25;;;16.10;99.90;;;;;;5096599;28;20378;-78
2023/09/05 00:30:55;;;;;;;50.83;19.42;;;16.10;99.90;;;;;;5080108;28;20047;-79
2023/09/05 00:33:21;;;;;;;46.92;19.65;;;16.10;99.90;;;;;;5096130;28;20043;-78
2023/09/05 00:35:48;;;;;;;50.33;18.55;;;16.10;99.90;;;;;;5089858;28;20099;-78
2023/09/05 00:38:17;;;;;;;45.47;17.77;;;16.00;99.90;;;;;;5090566;28;20071;-79
2023/09/05 00:40:43;;;;;;;45.30;17.30;;;16.00;99.90;;;;;;5095989;28;20113;-78
2023/09/05 00:43:10;;;;;;;40.63;16.30;;;16.00;99.90;;;;;;5086414;28;20418;-78
2023/09/05 00:45:37;;;;;;;45.45;16.20;;;15.90;99.90;;;;;;5094579;28;20134;-78
2023/09/05 00:48:07;;;;;;;40.85;16.63;;;15.90;99.90;;;;;;5086054;28;20040;-78
2023/09/05 00:50:33;;;;;;;40.30;15.07;;;15.80;99.90;;;;;;5094381;28;20411;-78
2023/09/05 00:53:00;;;;;;;41.55;14.77;;;15.80;99.90;;;;;;5069219;28;20101;-78
2023/09/05 00:55:27;;;;;;;39.85;15.88;;;15.80;99.90;;;;;;5073542;28;20420;-79
2023/09/05 00:57:55;;;;;;;36.78;14.10;;;15.70;99.90;;;;;;5061659;28;20125;-79
2023/09/05 01:00:22;;;;;;;35.97;14.27;;;15.70;99.90;;;;;;5086510;28;20068;-78
2023/09/05 01:02:49;;;;;;;39.35;15.82;;;15.70;99.90;;;;;;5089057;28;20075;-79
2023/09/05 01:05:15;;;;;;;41.15;16.13;;;15.60;99.90;;;;;;5056711;28;20051;-78
2023/09/05 01:07:43;;;;;;;35.97;14.70;;;15.50;99.90;;;;;;5038920;28;20080;-78
2023/09/05 01:10:10;;;;;;;39.30;14.73;;;15.50;99.90;;;;;;5090620;28;20068;-78
2023/09/05 01:12:37;;;;;;;38.50;14.50;;;15.50;99.90;;;;;;5059041;28;20071;-78
2023/09/05 01:15:04;;;;;;;31.25;12.70;;;15.50;99.90;;;;;;5058023;28;20128;-78
2023/09/05 01:17:32;;;;;;;33.88;13.05;;;15.40;99.90;;;;;;5087577;28;20040;-77
2023/09/05 01:19:58;;;;;;;36.45;13.40;;;15.40;99.90;;;;;;5071519;28;20045;-77
2023/09/05 01:22:25;;;;;;;40.55;14.45;;;15.40;99.90;;;;;;5066039;28;20037;-78
2023/09/05 01:24:52;;;;;;;40.25;15.23;;;15.30;99.90;;;;;;5074625;28;20043;-79
2023/09/05 01:27:22;;;;;;;36.17;14.23;;;15.20;99.90;;;;;;5078051;28;20054;-77
2023/09/05 01:29:49;;;;;;;35.85;14.35;;;15.20;99.90;;;;;;5062529;28;20059;-78
2023/09/05 01:32:17;;;;;;;36.53;13.75;;;15.10;99.90;;;;;;5072361;28;20535;-78
2023/09/05 01:34:44;;;;;;;36.60;14.07;;;15.20;99.90;;;;;;5041328;28;20076;-78
2023/09/05 01:37:14;;;;;;;37.72;13.05;;;15.10;99.90;;;;;;5062373;28;20048;-78
2023/09/05 01:39:41;;;;;;;48.63;16.42;;;15.10;99.90;;;;;;5076267;28;20055;-78
2023/09/05 01:42:08;;;;;;;38.63;14.20;;;15.00;99.90;;;;;;5058461;28;20068;-78
2023/09/05 01:44:36;;;;;;;39.83;14.93;;;15.00;99.90;;;;;;5058228;28;20048;-78
2023/09/05 01:47:04;;;;;;;41.35;15.80;;;15.00;99.90;;;;;;5091889;28;20367;-77
2023/09/05 01:49:30;;;;;;;41.30;14.80;;;14.90;99.90;;;;;;5088406;28;20047;-77
2023/09/05 01:51:57;;;;;;;37.33;13.70;;;14.90;99.90;;;;;;5076773;28;20072;-77
2023/09/05 01:54:27;;;;;;;34.80;13.63;;;14.80;99.90;;;;;;5060037;28;20078;-78
2023/09/05 01:56:54;;;;;;;32.08;12.98;;;14.80;99.90;;;;;;5095953;28;20035;-78
2023/09/05 01:59:21;;;;;;;33.40;12.88;;;14.80;99.90;;;;;;5081019;28;20036;-77
2023/09/05 02:01:48;;;;;;;35.78;12.50;;;14.80;99.90;;;;;;5070256;28;20060;-78
2023/09/05 02:04:15;;;;;;;38.83;12.85;;;14.70;99.90;;;;;;5089574;28;20474;-77
2023/09/05 02:06:41;;;;;;;34.28;12.38;;;14.70;99.90;;;;;;5073611;28;20048;-77
2023/09/05 02:09:10;;;;;;;35.50;12.73;;;14.70;99.90;;;;;;5075527;28;20044;-77
2023/09/05 02:11:37;;;;;;;37.15;12.95;;;14.70;99.90;;;;;;5093738;28;20110;-77
2023/09/05 02:14:04;;;;;;;31.10;11.70;;;14.60;99.90;;;;;;5084156;28;20063;-78
2023/09/05 02:16:31;;;;;;;25.40;10.45;;;14.60;99.90;;;;;;5091349;28;20048;-78
2023/09/05 02:18:58;;;;;;;34.45;12.43;;;14.60;99.90;;;;;;5094693;28;20036;-78
2023/09/05 02:21:25;;;;;;;41.25;15.80;;;14.60;99.90;;;;;;5080609;28;20064;-77
2023/09/05 02:23:52;;;;;;;44.22;16.60;;;14.60;99.90;;;;;;5094535;28;20135;-78
2023/09/05 02:26:19;;;;;;;37.88;13.65;;;14.60;99.90;;;;;;5095300;28;20062;-78
2023/09/05 02:28:46;;;;;;;39.10;14.50;;;14.60;99.90;;;;;;5088438;28;20065;-77
2023/09/05 02:31:12;;;;;;;34.17;12.57;;;14.50;99.90;;;;;;5075145;28;20037;-78
2023/09/05 02:33:39;;;;;;;44.17;15.13;;;14.50;99.90;;;;;;5087717;28;20046;-77
2023/09/05 02:36:06;;;;;;;41.35;14.35;;;14.60;99.90;;;;;;5085508;28;20036;-77
2023/09/05 02:38:33;;;;;;;36.53;13.52;;;14.50;99.90;;;;;;5095150;28;20036;-77
2023/09/05 02:41:00;;;;;;;36.17;13.00;;;14.50;99.90;;;;;;5094476;28;20082;-77
2023/09/05 02:43:26;;;;;;;31.67;12.20;;;14.50;99.90;;;;;;5080047;28;20144;-79
2023/09/05 02:45:53;;;;;;;44.85;14.63;;;14.40;99.90;;;;;;5087977;28;20055;-78
2023/09/05 02:48:22;;;;;;;31.83;12.35;;;14.40;99.90;;;;;;5076051;28;20471;-78
2023/09/05 02:50:48;;;;;;;28.75;12.63;;;14.40;99.90;;;;;;5093612;28;20113;-77
2023/09/05 02:53:15;;;;;;;33.35;11.88;;;14.40;99.90;;;;;;5093342;28;20038;-77
2023/09/05 02:55:42;;;;;;;27.10;10.73;;;14.40;99.90;;;;;;5093790;28;20048;-76
2023/09/05 02:58:09;;;;;;;25.63;9.93;;;14.40;99.90;;;;;;5093893;28;20093;-78
2023/09/05 03:00:35;;;;;;;25.50;10.32;;;14.40;99.90;;;;;;5094237;28;20028;-77
2023/09/05 03:03:02;;;;;;;30.67;11.93;;;14.40;99.90;;;;;;5094808;28;20366;-77
2023/09/05 03:05:29;;;;;;;29.33;11.43;;;14.30;99.90;;;;;;5080678;28;20098;-79
2023/09/05 03:07:56;;;;;;;30.42;11.15;;;14.30;99.90;;;;;;5071563;28;20058;-77
2023/09/05 03:10:22;;;;;;;33.63;11.02;;;14.30;99.90;;;;;;5094985;28;20332;-77
2023/09/05 03:12:49;;;;;;;34.92;12.52;;;14.30;99.90;;;;;;5094227;28;20118;-78
2023/09/05 03:15:18;;;;;;;32.80;11.88;;;14.30;99.90;;;;;;5086672;28;20419;-78
2023/09/05 03:17:47;;;;;;;29.77;12.15;;;14.30;99.90;;;;;;5086796;28;20123;-77
2023/09/05 03:20:15;;;;;;;30.60;11.20;;;14.30;99.90;;;;;;5093370;28;20063;-77
2023/09/05 03:22:42;;;;;;;33.03;11.98;;;14.30;99.90;;;;;;5082794;28;20487;-78
2023/09/05 03:25:09;;;;;;;33.05;12.63;;;14.30;99.90;;;;;;5087496;28;20040;-78
2023/09/05 03:27:37;;;;;;;31.85;11.68;;;14.20;99.90;;;;;;5073070;28;20041;-78
2023/09/05 03:30:06;;;;;;;29.40;10.82;;;14.20;99.90;;;;;;5090836;28;20369;-77
2023/09/05 03:32:32;;;;;;;33.95;11.77;;;14.20;99.90;;;;;;5094183;28;20036;-77
2023/09/05 03:34:59;;;;;;;40.08;14.30;;;14.20;99.90;;;;;;5091584;28;20052;-78
2023/09/05 03:37:28;;;;;;;40.90;15.48;;;14.20;99.90;;;;;;5080385;28;20401;-78
2023/09/05 03:39:54;;;;;;;48.85;17.85;;;14.20;99.90;;;;;;5093932;28;20371;-77
2023/09/05 03:42:22;;;;;;;48.15;16.75;;;14.20;99.90;;;;;;5093987;28;20040;-78
2023/09/05 03:44:50;;;;;;;62.70;20.23;;;14.20;99.90;;;;;;5081239;28;20483;-77
2023/09/05 03:47:17;;;;;;;63.60;21.15;;;14.20;99.90;;;;;;5087419;28;20067;-78
2023/09/05 03:49:44;;;;;;;50.33;17.50;;;14.20;99.90;;;;;;5067601;28;20051;-77
2023/09/05 03:52:11;;;;;;;61.83;18.20;;;14.20;99.90;;;;;;5063481;28;20041;-78
2023/09/05 03:54:38;;;;;;;51.20;16.55;;;14.20;99.90;;;;;;5040152;28;20041;-78
2023/09/05 03:57:04;;;;;;;59.83;19.90;;;14.20;99.90;;;;;;5074159;28;20036;-77
2023/09/05 03:59:31;;;;;;;57.38;19.38;;;14.20;99.90;;;;;;5056625;28;20068;-77
2023/09/05 04:01:59;;;;;;;59.50;20.17;;;14.10;99.90;;;;;;5055759;28;20049;-78
2023/09/05 04:04:26;;;;;;;58.22;19.35;;;14.10;99.90;;;;;;5056471;28;20052;-78
2023/09/05 04:06:55;;;;;;;66.60;20.50;;;14.10;99.90;;;;;;5065978;28;20116;-78
2023/09/05 04:09:21;;;;;;;66.00;21.85;;;14.10;99.90;;;;;;5050372;28;20414;-79
2023/09/05 04:11:48;;;;;;;63.88;20.25;;;14.10;99.90;;;;;;5074079;28;20068;-78
2023/09/05 04:14:15;;;;;;;59.63;20.42;;;14.10;99.90;;;;;;5043481;28;20463;-78
2023/09/05 04:16:42;;;;;;;74.65;20.92;;;14.10;99.90;;;;;;5054531;28;20127;-78
2023/09/05 04:19:10;;;;;;;65.95;21.92;;;14.00;99.90;;;;;;5047151;28;20443;-78
2023/09/05 04:21:38;;;;;;;69.35;23.02;;;14.00;99.90;;;;;;5070751;28;20460;-78
2023/09/05 04:24:06;;;;;;;64.50;21.55;;;14.10;99.90;;;;;;5049263;28;20387;-77
2023/09/05 04:26:33;;;;;;;79.97;24.20;;;14.20;99.90;;;;;;5076967;28;20037;-77
2023/09/05 04:29:01;;;;;;;66.65;22.52;;;14.20;99.90;;;;;;5060218;28;20048;-77
2023/09/05 04:31:28;;;;;;;68.03;23.88;;;14.30;99.90;;;;;;5060240;28;20140;-77
2023/09/05 04:33:55;;;;;;;74.03;25.70;;;14.40;99.90;;;;;;5059085;28;20481;-77
2023/09/05 04:36:22;;;;;;;81.68;25.10;;;14.40;99.90;;;;;;5047599;28;20060;-78
2023/09/05 04:38:50;;;;;;;79.47;24.58;;;14.50;99.90;;;;;;5051258;28;20086;-78
2023/09/05 04:41:16;;;;;;;83.97;24.58;;;14.60;99.90;;;;;;5076560;28;20136;-79
2023/09/05 04:43:43;;;;;;;87.95;24.55;;;14.60;99.90;;;;;;5059307;28;20072;-78
2023/09/05 04:46:10;;;;;;;85.55;28.02;;;14.70;99.90;;;;;;5077709;28;20124;-78
2023/09/05 04:48:37;;;;;;;83.43;25.17;;;14.70;99.90;;;;;;5059286;28;20049;-77
2023/09/05 04:51:04;;;;;;;70.20;23.75;;;14.80;99.90;;;;;;5073643;28;20052;-78
2023/09/05 04:53:31;;;;;;;75.90;25.05;;;14.90;99.90;;;;;;5096408;28;20375;-78
2023/09/05 04:56:00;;;;;;;70.28;22.85;;;14.90;99.90;;;;;;5096264;28;20426;-77
2023/09/05 04:58:29;;;;;;;86.57;23.52;;;15.00;99.90;;;;;;5097368;28;20040;-77
2023/09/05 05:01:01;;;;;;;81.35;24.17;;;15.00;99.90;;;;;;5096587;28;20043;-77
2023/09/05 05:03:28;;;;;;;73.43;22.67;;;15.00;99.90;;;;;;5096199;28;20047;-77
2023/09/05 05:05:55;;;;;;;66.10;23.25;;;15.10;99.90;;;;;;5096240;28;20044;-78
2023/09/05 05:08:22;;;;;;;72.20;22.77;;;15.10;99.90;;;;;;5096185;28;20413;-78
2023/09/05 05:10:49;;;;;;;62.63;21.25;;;15.10;99.90;;;;;;5085024;28;20360;-80
2023/09/05 05:13:17;;;;;;;72.60;21.83;;;15.10;99.90;;;;;;5094275;28;20344;-77
2023/09/05 05:15:45;;;;;;;97.43;23.73;;;15.20;99.90;;;;;;5097093;28;20047;-77
2023/09/05 05:18:13;;;;;;;68.85;23.95;;;15.30;99.90;;;;;;5094519;28;20102;-77
2023/09/05 05:20:40;;;;;;;69.60;21.25;;;15.30;99.90;;;;;;5076180;28;20139;-78
2023/09/05 05:23:07;;;;;;;70.57;23.20;;;15.30;99.90;;;;;;5090628;28;20102;-78
2023/09/05 05:25:33;;;;;;;68.65;20.85;;;15.40;99.90;;;;;;5089147;28;20057;-78
2023/09/05 05:28:02;;;;;;;65.38;23.60;;;15.40;99.90;;;;;;5075813;28;20110;-78
2023/09/05 05:30:29;;;;;;;66.60;23.30;;;15.40;99.90;;;;;;5089737;28;20094;-77
2023/09/05 05:32:55;;;;;;;64.97;23.85;;;15.40;99.90;;;;;;5088758;28;20036;-77
2023/09/05 05:35:22;;;;;;;60.45;22.50;;;15.50;99.90;;;;;;5095699;28;20043;-77
2023/09/05 05:37:49;;;;;;;60.72;21.60;;;15.50;99.90;;;;;;5096505;28;20102;-78
2023/09/05 05:40:16;;;;;;;63.63;23.08;;;15.60;99.90;;;;;;5079170;28;20055;-77
2023/09/05 05:42:42;;;;;;;61.05;21.15;;;15.60;99.90;;;;;;5084852;28;20047;-78
2023/09/05 05:45:10;;;;;;;65.75;22.88;;;15.60;99.90;;;;;;5081850;28;20044;-78
2023/09/05 05:47:38;;;;;;;71.90;23.55;;;15.60;99.90;;;;;;5095593;28;20344;-77
2023/09/05 05:50:05;;;;;;;59.80;21.30;;;15.60;99.90;;;;;;5095577;28;20051;-77
2023/09/05 05:52:31;;;;;;;54.03;20.33;;;15.60;99.90;;;;;;5043969;28;20472;-77
2023/09/05 05:54:58;;;;;;;60.03;20.77;;;15.60;99.90;;;;;;5075006;28;20367;-78
2023/09/05 05:57:25;;;;;;;60.53;21.98;;;15.70;99.90;;;;;;5075986;28;20447;-78
2023/09/05 05:59:51;;;;;;;58.67;22.30;;;15.60;99.90;;;;;;5075221;28;20116;-78
2023/09/05 06:02:18;;;;;;;52.78;20.88;;;15.70;99.90;;;;;;5053239;28;20127;-78
2023/09/05 06:04:45;;;;;;;59.17;22.45;;;15.60;99.90;;;;;;5075211;28;20471;-77
2023/09/05 06:07:11;;;;;;;57.17;20.85;;;15.70;99.90;;;;;;5057756;28;20072;-77
2023/09/05 06:09:38;;;;;;;59.00;21.52;;;15.70;99.90;;;;;;5052415;28;20136;-77
2023/09/05 06:12:05;;;;;;;64.70;23.27;;;15.70;99.90;;;;;;5064345;28;20045;-78
2023/09/05 06:14:32;;;;;;;59.10;21.38;;;15.70;99.90;;;;;;5074693;28;20427;-79
2023/09/05 06:16:59;;;;;;;67.47;24.15;;;15.70;99.90;;;;;;5055033;28;20090;-78
2023/09/05 06:19:27;;;;;;;56.67;22.17;;;15.70;99.90;;;;;;5068348;28;20484;-78
2023/09/05 06:21:55;;;;;;;55.55;21.80;;;15.70;99.90;;;;;;5057011;28;20051;-78
2023/09/05 06:24:22;;;;;;;55.40;21.65;;;15.70;99.90;;;;;;5075479;28;20135;-78
2023/09/05 06:26:48;;;;;;;54.38;21.73;;;15.80;99.90;;;;;;5074338;28;20102;-78
2023/09/05 06:29:15;;;;;;;57.55;22.20;;;15.80;99.90;;;;;;5075327;28;20044;-78
2023/09/05 06:31:42;;;;;;;63.03;23.85;;;15.90;99.90;;;;;;5043683;28;20127;-77
2023/09/05 06:34:08;;;;;;;57.53;21.63;;;16.00;99.90;;;;;;5073997;28;20060;-79
2023/09/05 06:36:35;;;;;;;59.53;22.55;;;16.00;99.90;;;;;;5075105;28;20051;-79
2023/09/05 06:39:06;;;;;;;59.90;21.80;;;16.10;99.90;;;;;;5075002;28;20367;-79
2023/09/05 06:41:33;;;;;;;52.28;21.38;;;16.20;99.90;;;;;;5056425;28;20079;-78
2023/09/05 06:44:00;;;;;;;52.10;21.90;;;16.20;99.90;;;;;;5067429;28;20572;-78
2023/09/05 06:46:26;;;;;;;57.58;21.80;;;16.30;99.90;;;;;;5068030;28;20038;-79
2023/09/05 06:48:53;;;;;;;54.20;21.88;;;16.40;99.90;;;;;;5070719;28;20390;-78
2023/09/05 06:51:20;;;;;;;52.45;22.10;;;16.40;99.90;;;;;;5071464;28;20048;-78
2023/09/05 06:53:47;;;;;;;54.60;20.88;;;16.50;99.90;;;;;;5069306;28;20050;-78
2023/09/05 06:56:14;;;;;;;54.55;22.17;;;16.50;99.90;;;;;;5054909;28;20463;-78
2023/09/05 06:58:41;;;;;;;54.28;22.15;;;16.50;99.90;;;;;;5068929;28;20047;-77
2023/09/05 07:01:07;;;;;;;52.50;21.52;;;16.60;99.90;;;;;;5052455;28;20040;-78
2023/09/05 07:03:34;;;;;;;49.28;21.83;;;16.60;99.90;;;;;;5047261;28;20052;-78
2023/09/05 07:06:02;;;;;;;65.97;24.20;;;16.70;99.90;;;;;;5073481;28;20086;-78
2023/09/05 07:08:34;;;;;;;54.97;21.98;;;16.80;99.90;;;;;;5065472;28;20353;-78
2023/09/05 07:11:01;;;;;;;59.72;20.13;;;16.80;99.90;;;;;;5068275;28;20127;-78
2023/09/05 07:13:28;;;;;;;51.53;22.20;;;16.90;99.90;;;;;;5062819;28;20071;-78
2023/09/05 07:15:56;;;;;;;53.17;21.17;;;17.00;99.90;;;;;;5068820;28;20051;-78
2023/09/05 07:18:24;;;;;;;54.78;20.85;;;17.10;99.90;;;;;;5069372;28;20505;-78
2023/09/05 07:20:51;;;;;;;51.35;21.13;;;17.20;99.90;;;;;;5055660;28;20049;-78
2023/09/05 07:23:18;;;;;;;49.15;19.73;;;17.30;99.90;;;;;;5045913;28;20044;-78
2023/09/05 07:25:45;;;;;;;53.28;21.13;;;17.40;99.90;;;;;;5057868;28;20041;-78
2023/09/05 07:28:12;;;;;;;45.13;20.58;;;17.50;99.90;;;;;;5063869;28;20044;-78
2023/09/05 07:30:39;;;;;;;51.15;21.35;;;17.70;99.90;;;;;;5046783;28;20467;-78
2023/09/05 07:33:06;;;;;;;44.03;19.38;;;17.80;99.90;;;;;;5070411;28;20524;-78
2023/09/05 07:35:33;;;;;;;50.80;20.63;;;17.90;99.90;;;;;;5072167;28;20430;-78
2023/09/05 07:38:00;;;;;;;46.30;20.33;;;18.00;99.90;;;;;;5057389;28;20048;-78
2023/09/05 07:40:27;;;;;;;45.10;19.83;;;18.10;99.90;;;;;;5056295;28;20060;-78
2023/09/05 07:42:53;;;;;;;51.33;20.35;;;18.30;99.90;;;;;;5074496;28;20132;-79
2023/09/05 07:45:24;;;;;;;46.65;18.45;;;18.40;99.90;;;;;;5056536;28;20463;-78
2023/09/05 07:47:52;;;;;;;43.17;18.65;;;18.40;99.90;;;;;;5073908;28;20099;-78
2023/09/05 07:50:19;;;;;;;46.00;20.02;;;18.40;99.90;;;;;;5074403;28;20045;-78
2023/09/05 07:52:47;;;;;;;44.42;17.73;;;18.40;99.90;;;;;;5042466;28;20037;-78
2023/09/05 07:55:14;;;;;;;42.47;17.85;;;18.50;99.90;;;;;;5075883;28;20037;-78
2023/09/05 07:57:41;;;;;;;46.75;19.00;;;18.50;99.90;;;;;;5052734;28;20048;-82
2023/09/05 08:00:15;;;;;;;44.38;19.65;;;18.50;99.90;;;;;;5077108;28;20074;-83
2023/09/05 08:02:42;;;;;;;53.15;18.70;;;18.40;99.90;;;;;;5060245;28;20086;-85
2023/09/05 08:05:09;;;;;;;44.75;19.23;;;18.50;99.90;;;;;;5077628;28;20048;-81
2023/09/05 08:07:40;;;;;;;39.35;17.55;;;18.70;99.90;;;;;;5077042;28;20067;-82
2023/09/05 08:10:07;;;;;;;;;;;18.90;99.90;;;;;;5063507;28;20132;-80
2023/09/05 08:12:34;;;;;;;52.78;19.13;;;19.10;99.90;;;;;;5070877;28;20039;-80
2023/09/05 08:15:01;;;;;;;39.70;18.33;;;19.20;99.90;;;;;;5058880;28;20044;-82
2023/09/05 08:17:29;;;;;;;40.40;18.20;;;19.30;99.90;;;;;;5077340;28;20463;-82
2023/09/05 08:19:55;;;;;;;40.47;17.10;;;19.50;99.90;;;;;;5040496;28;20128;-80
2023/09/05 08:22:22;;;;;;;43.40;19.02;;;19.70;99.90;;;;;;5066467;28;20036;-79
2023/09/05 08:24:50;;;;;;;39.92;19.42;;;19.90;99.90;;;;;;5054713;28;20045;-79
2023/09/05 08:27:17;;;;;;;41.30;17.58;;;20.00;99.90;;;;;;5056666;28;20040;-81
2023/09/05 08:29:43;;;;;;;39.33;18.10;;;20.10;99.90;;;;;;5077538;28;20132;-79
2023/09/05 08:32:11;;;;;;;42.63;17.73;;;20.00;99.90;;;;;;5057665;28;20133;-82
2023/09/05 08:34:39;;;;;;;40.83;19.60;;;20.00;99.90;;;;;;5068368;28;20033;-82
2023/09/05 08:37:08;;;;;;;39.30;16.75;;;20.00;99.90;;;;;;5077207;28;20355;-81
2023/09/05 08:39:34;;;;;;;37.72;18.65;;;20.00;99.90;;;;;;5059882;28;20052;-83
2023/09/05 08:42:02;;;;;;;41.35;18.38;;;20.10;99.90;;;;;;5075551;28;20072;-80
2023/09/05 08:44:28;;;;;;;43.17;17.00;;;20.30;99.90;;;;;;5077023;28;20159;-82
2023/09/05 08:46:55;;;;;;;34.65;16.45;;;20.60;99.90;;;;;;5075085;28;20450;-81
2023/09/05 08:49:22;;;;;;;39.40;17.52;;;20.80;99.90;;;;;;5046477;28;20056;-82
2023/09/05 08:51:49;;;;;;;36.85;15.18;;;21.10;99.90;;;;;;5072472;28;20132;-80
2023/09/05 08:54:16;;;;;;;30.33;15.48;;;21.30;99.90;;;;;;5067976;28;20405;-82
2023/09/05 08:56:42;;;;;;;29.50;14.50;;;21.30;99.90;;;;;;5084486;28;20063;-83
2023/09/05 08:59:09;;;;;;;31.75;14.50;;;21.30;99.90;;;;;;5079391;28;20036;-82
2023/09/05 09:01:38;;;;;;;28.52;15.00;;;21.30;99.90;;;;;;5068180;28;20040;-82
2023/09/05 09:04:04;;;;;;;23.90;13.07;;;21.40;99.90;;;;;;5084390;28;20094;-83
2023/09/05 09:06:31;;;;;;;26.90;12.02;;;21.50;99.90;;;;;;5065205;28;20047;-80
2023/09/05 09:08:59;;;;;;;25.65;13.43;;;21.70;99.90;;;;;;5078008;28;20040;-82
2023/09/05 09:11:26;;;;;;;29.40;13.57;;;21.90;99.90;;;;;;5031176;28;20040;-80
2023/09/05 09:13:53;;;;;;;29.52;15.07;;;22.10;99.90;;;;;;5070092;28;20426;-80
2023/09/05 09:16:19;;;;;;;26.83;11.48;;;22.30;99.90;;;;;;5090902;28;20118;-82
2023/09/05 09:18:47;;;;;;;27.10;10.25;;;22.50;99.90;;;;;;5076169;28;20040;-81
2023/09/05 09:21:14;;;;;;;25.17;12.90;;;22.80;99.90;;;;;;5044871;28;20364;-82
2023/09/05 09:23:40;;;;;;;24.00;10.57;;;23.00;99.90;;;;;;5066166;28;20068;-82
2023/09/05 09:26:07;;;;;;;20.27;11.55;;;23.10;99.90;;;;;;5067667;28;20064;-82
2023/09/05 09:28:34;;;;;;;26.40;12.23;;;23.30;99.90;;;;;;5045753;28;20044;-82
2023/09/05 09:31:03;;;;;;;20.45;10.38;;;23.50;99.90;;;;;;5085483;28;20044;-81
2023/09/05 09:33:31;;;;;;;25.85;8.85;;;23.70;99.90;;;;;;5085579;28;20338;-81
2023/09/05 09:35:58;;;;;;;19.88;10.90;;;23.80;99.90;;;;;;5067733;28;20037;-82
2023/09/05 09:38:26;;;;;;;16.92;8.30;;;24.00;99.90;;;;;;5084407;28;20386;-80
2023/09/05 09:40:53;;;;;;;17.13;10.13;;;24.00;99.90;;;;;;5070216;28;20048;-82
2023/09/05 09:43:20;;;;;;;17.83;10.20;;;24.20;99.90;;;;;;5094200;28;20405;-82
2023/09/05 09:45:47;;;;;;;21.00;9.73;;;24.30;99.90;;;;;;5057833;28;20440;-83
2023/09/05 09:48:14;;;;;;;17.83;9.60;;;24.40;99.90;;;;;;5067508;28;20083;-83
2023/09/05 09:50:43;;;;;;;18.42;8.38;;;24.60;99.90;;;;;;5063907;28;20413;-83
2023/09/05 09:53:11;;;;;;;17.92;10.23;;;24.80;99.90;;;;;;5095428;28;20044;-82
2023/09/05 09:55:38;;;;;;;14.70;7.60;;;24.80;99.90;;;;;;5073646;28;20121;-81
2023/09/05 09:58:08;;;;;;;17.83;8.80;;;24.90;99.90;;;;;;5095580;28;20079;-81
2023/09/05 10:00:35;;;;;;;16.42;7.88;;;25.00;99.90;;;;;;5096500;28;20054;-80
2023/09/05 10:03:04;;;;;;;15.85;8.82;;;25.20;99.90;;;;;;5075988;28;20040;-81
2023/09/05 10:05:31;;;;;;;14.65;8.10;;;25.50;99.90;;;;;;5090957;28;20050;-79
2023/09/05 10:07:59;;;;;;;14.73;8.07;;;25.60;99.90;;;;;;5078508;28;20048;-81
2023/09/05 10:10:25;;;;;;;14.52;7.35;;;25.70;99.90;;;;;;5084698;28;20063;-81
2023/09/05 10:12:53;;;;;;;15.70;7.70;;;25.70;99.90;;;;;;5086204;28;20071;-79
2023/09/05 10:15:20;;;;;;;16.38;7.78;;;25.90;99.90;;;;;;5076359;28;20363;-85
2023/09/05 10:17:47;;;;;;;12.45;7.43;;;26.00;99.90;;;;;;5087185;28;20040;-83
2023/09/05 10:20:14;;;;;;;14.13;6.85;;;26.20;99.90;;;;;;5092479;28;20039;-83
2023/09/05 10:22:46;;;;;;;14.20;7.10;;;26.20;99.90;;;;;;5078078;28;20371;-82
2023/09/05 10:25:13;;;;;;;15.60;7.47;;;26.40;99.90;;;;;;5093542;28;20111;-82
2023/09/05 10:27:42;;;;;;;11.13;6.47;;;26.60;99.90;;;;;;5085249;28;20741;-85
2023/09/05 10:30:12;;;;;;;13.32;7.68;;;26.80;99.90;;;;;;5090104;28;20063;-78
2023/09/05 10:32:39;;;;;;;14.57;7.72;;;26.90;99.90;;;;;;5092500;28;20081;-82
2023/09/05 10:35:06;;;;;;;15.35;6.93;;;27.00;99.90;;;;;;5084823;28;20380;-82
2023/09/05 10:40:22;;;;;;;12.90;6.70;;;27.60;99.90;;;;;;5073777;28;20037;-83
2023/09/05 10:42:49;;;;;;;13.93;7.05;;;28.00;99.90;;;;;;5076148;28;20511;-86
2023/09/05 10:45:16;;;;;;;15.77;6.65;;;28.40;99.90;;;;;;5089943;28;20094;-84
2023/09/05 10:50:31;;;;;;;11.25;6.40;;;28.60;99.90;;;;;;5076565;28;20064;-85
2023/09/05 10:52:58;;;;;;;13.82;6.00;;;28.80;99.90;;;;;;5037794;28;20061;-88
2023/09/05 10:55:29;;;;;;;12.50;5.80;;;29.20;99.90;;;;;;5036585;28;20509;-86
2023/09/05 10:57:56;;;;;;;13.13;6.13;;;29.50;99.90;;;;;;5072575;28;20039;-82
2023/09/05 11:00:27;;;;;;;13.90;5.90;;;29.60;99.90;;;;;;5046650;28;20076;-82
2023/09/05 11:02:56;;;;;;;;;;;29.70;99.90;;;;;;5057486;28;20052;-85
2023/09/05 11:05:26;;;;;;;10.55;5.40;;;29.80;99.90;;;;;;5075336;28;20240;-84
2023/09/05 11:10:39;;;;;;;8.85;4.47;;;30.10;99.90;;;;;;5064159;28;20103;-82
2023/09/05 11:13:06;;;;;;;10.60;5.25;;;30.40;99.90;;;;;;5070937;28;20120;-81
2023/09/05 11:15:35;;;;;;;15.52;5.07;;;30.60;99.90;;;;;;5064485;28;20075;-84
2023/09/05 11:21:07;;;;;;;10.10;4.07;;;30.90;99.90;;;;;;5073747;28;20021;-86
2023/09/05 11:23:36;;;;;;;10.40;4.22;;;30.90;99.90;;;;;;5042281;28;20051;-87
2023/09/05 11:26:06;;;;;;;8.88;4.07;;;31.10;99.90;;;;;;5052579;28;20448;-86
2023/09/05 11:31:21;;;;;;;11.68;4.43;;;31.30;99.90;;;;;;5049355;28;20103;-82
2023/09/05 11:33:48;;;;;;;10.10;4.10;;;31.40;99.90;;;;;;5072476;28;20036;-86
2023/09/05 11:36:15;;;;;;;7.93;3.78;;;31.70;99.90;;;;;;5074102;28;20044;-87
2023/09/05 11:38:43;;;;;;;9.75;4.47;;;31.90;99.90;;;;;;5042080;28;20547;-84
2023/09/05 11:41:10;;;;;;;8.45;3.90;;;32.20;99.90;;;;;;5045707;28;20041;-84
2023/09/05 11:43:37;;;;;;;9.55;3.70;;;32.40;99.90;;;;;;5059774;28;20127;-84
2023/09/05 11:46:03;;;;;;;9.57;3.58;;;32.50;99.90;;;;;;5066242;28;20053;-86
2023/09/05 11:48:31;;;;;;;8.65;3.63;;;32.40;99.90;;;;;;5055397;28;20062;-83
2023/09/05 11:50:58;;;;;;;10.23;3.92;;;32.50;99.90;;;;;;5048929;28;20071;-84
2023/09/05 11:53:25;;;;;;;10.32;4.00;;;32.60;99.90;;;;;;5081280;28;20044;-82
2023/09/05 11:55:51;;;;;;;8.63;4.13;;;32.60;99.90;;;;;;5081452;28;20051;-82
2023/09/05 11:58:19;;;;;;;9.27;3.75;;;32.70;99.90;;;;;;5092148;28;20032;-82
2023/09/05 12:00:46;;;;;;;9.20;3.55;;;32.70;99.90;;;;;;5072892;28;20053;-82
2023/09/05 12:03:15;;;;;;;11.25;3.65;;;32.50;99.90;;;;;;5082367;28;20036;-81
2023/09/05 12:05:43;;;;;;;8.98;3.75;;;32.60;99.90;;;;;;5094124;28;20032;-82
2023/09/05 12:08:10;;;;;;;9.65;3.50;;;32.80;99.90;;;;;;5093154;28;20044;-80
2023/09/05 12:10:57;;;;;;;8.35;3.42;;;32.90;99.90;;;;;;5081405;28;20051;-81
2023/09/05 12:13:24;;;;;;;7.05;3.58;;;33.20;99.90;;;;;;5092307;28;20094;-83
2023/09/05 12:15:50;;;;;;;8.60;3.65;;;33.10;99.90;;;;;;5093827;28;20036;-81
2023/09/05 12:18:22;;;;;;;10.65;3.35;;;33.10;99.90;;;;;;5091975;28;20101;-81
2023/09/05 12:20:49;;;;;;;6.60;3.47;;;33.20;99.90;;;;;;5093319;28;20054;-81
2023/09/05 12:23:15;;;;;;;11.48;3.22;;;33.10;99.90;;;;;;5094104;28;20039;-81
2023/09/05 12:25:42;;;;;;;9.30;3.53;;;33.20;99.90;;;;;;5085642;28;20127;-82
2023/09/05 12:28:23;;;;;;;8.73;3.30;;;33.40;99.90;;;;;;5068717;28;20472;-82
2023/09/05 12:30:53;;;;;;;8.10;4.00;;;33.40;99.90;;;;;;5075631;28;20056;-83
2023/09/05 12:33:20;;;;;;;9.48;3.78;;;33.30;99.90;;;;;;5072961;28;20048;-82
2023/09/05 12:35:47;;;;;;;12.40;3.55;;;33.30;99.90;;;;;;5086504;28;20509;-83
2023/09/05 12:38:15;;;;;;;8.38;3.55;;;33.30;99.90;;;;;;5086544;28;20040;-86
2023/09/05 12:40:43;;;;;;;9.00;3.55;;;33.50;99.90;;;;;;5080909;28;20124;-83
2023/09/05 12:43:10;;;;;;;7.10;3.42;;;33.70;99.90;;;;;;5105056;28;20047;-83
2023/09/05 12:45:37;;;;;;;6.55;3.30;;;33.90;99.90;;;;;;5082962;28;20032;-80